KAXN/AXN METAR and TAF weather

Enter ICAO airport designator
Station Type Date Time Source
KAXN METAR 2022/12/04 12:53 UTC NOAA

KAXN 041253Z AUTO 23008KT 10SM CLR M12/M14 A2998 RMK AO2 SLP186 T11171144


Station Type Date Time Source
KAXN Decoded METAR 2022/12/04 12:53 UTC NOAA

CHANDLER FIELD, MN, United States (KAXN) 45-52N 095-24W 433M
Dec 04, 2022 - 07:53 AM EST / 2022.12.04 1253 UTC
Wind: from the SW (230 degrees) at 9 MPH (8 KT):0
Visibility: 10 mile(s):0
Sky conditions: clear
Temperature: 10.9 F (-11.7 C)
Windchill: -2 F (-19 C):1
Dew Point: 6.1 F (-14.4 C)
Relative Humidity: 80%
Pressure (altimeter): 29.98 in. Hg (1015 hPa)
ob: KAXN 041253Z AUTO 23008KT 10SM CLR M12/M14 A2998 RMK AO2 SLP186 T11171144
cycle: 13

Station Type Date Time Source
KAXN TAF 2022/12/04 12:30 UTC NOAA

TAF KAXN 041128Z 0412/0512 24009KT P6SM SKC
FM041700 24013G20KT P6SM SKC
FM050600 33008KT P6SM BKN150

Example: see airport list